createdAt,value
2023-07-20T00:06:16.285Z,18.43
2023-07-20T00:08:45.858Z,18.33
2023-07-20T00:11:15.882Z,18.38
2023-07-20T00:13:43.677Z,18.37
2023-07-20T00:16:11.601Z,18.26
2023-07-20T00:18:39.513Z,18.25
2023-07-20T00:21:07.441Z,18.22
2023-07-20T00:23:36.406Z,18.24
2023-07-20T00:26:05.775Z,18.15
2023-07-20T00:28:33.573Z,18.19
2023-07-20T00:31:02.131Z,18.21
2023-07-20T00:33:31.245Z,18.18
2023-07-20T00:36:00.556Z,18.22
2023-07-20T00:38:28.334Z,18.13
2023-07-20T00:40:56.109Z,18.14
2023-07-20T00:43:25.368Z,18.14
2023-07-20T00:45:53.814Z,18.18
2023-07-20T00:48:22.077Z,18.22
2023-07-20T00:50:50.518Z,18.24
2023-07-20T00:57:31.946Z,18.11
2023-07-20T01:00:02.551Z,18.13
2023-07-20T01:02:30.560Z,18.03
2023-07-20T01:04:58.478Z,18.05
2023-07-20T01:07:33.307Z,18.02
2023-07-20T01:10:05.093Z,18.06
2023-07-20T01:12:45.145Z,18.05
2023-07-20T01:15:14.694Z,18.10
2023-07-20T01:17:42.781Z,18.02
2023-07-20T01:20:14.603Z,18.18
2023-07-20T01:23:17.810Z,18.15
2023-07-20T01:26:14.180Z,18.32
2023-07-20T01:29:08.058Z,18.08
2023-07-20T01:31:40.183Z,18.06
2023-07-20T01:34:11.051Z,18.14
2023-07-20T01:36:40.593Z,18.07
2023-07-20T01:39:08.745Z,17.98
2023-07-20T01:41:37.180Z,17.90
2023-07-20T01:44:05.995Z,17.84
2023-07-20T01:46:34.066Z,17.68
2023-07-20T01:49:03.541Z,17.55
2023-07-20T01:51:33.557Z,17.57
2023-07-20T01:54:02.044Z,17.40
2023-07-20T01:56:30.140Z,17.38
2023-07-20T01:58:58.015Z,17.39
2023-07-20T02:01:25.960Z,17.22
2023-07-20T02:03:54.336Z,17.23
2023-07-20T02:06:23.817Z,17.27
2023-07-20T02:08:51.847Z,17.23
2023-07-20T02:11:19.715Z,17.14
2023-07-20T02:13:47.722Z,17.12
2023-07-20T02:16:15.646Z,17.18
2023-07-20T02:18:43.562Z,17.10
2023-07-20T02:21:11.894Z,17.09
2023-07-20T02:23:41.108Z,17.07
2023-07-20T02:26:08.914Z,17.08
2023-07-20T02:28:40.668Z,17.09
2023-07-20T02:31:08.779Z,17.06
2023-07-20T02:33:36.721Z,17.12
2023-07-20T02:36:04.804Z,17.11
2023-07-20T02:38:32.660Z,17.12
2023-07-20T02:41:02.029Z,17.06
2023-07-20T02:43:30.491Z,17.12
2023-07-20T02:45:58.269Z,17.11
2023-07-20T02:48:26.072Z,17.17
2023-07-20T02:50:53.895Z,17.10
2023-07-20T02:53:21.742Z,17.00
2023-07-20T02:55:49.847Z,17.15
2023-07-20T02:58:19.183Z,17.07
2023-07-20T03:00:47.057Z,16.97
2023-07-20T03:03:15.124Z,16.93
2023-07-20T03:05:43.472Z,16.95
2023-07-20T03:08:11.298Z,17.04
2023-07-20T03:10:42.778Z,16.93
2023-07-20T03:13:10.611Z,16.99
2023-07-20T03:15:40.100Z,17.03
2023-07-20T03:18:08.342Z,16.95
2023-07-20T03:20:38.034Z,16.93
2023-07-20T03:23:06.931Z,17.00
2023-07-20T03:25:34.786Z,16.94
2023-07-20T03:28:03.001Z,16.89
2023-07-20T03:30:31.010Z,16.89
2023-07-20T03:33:00.312Z,16.89
2023-07-20T03:35:28.269Z,16.94
2023-07-20T03:37:56.274Z,16.88
2023-07-20T03:40:23.866Z,16.92
2023-07-20T03:42:51.714Z,16.85
2023-07-20T03:45:19.573Z,16.87
2023-07-20T03:47:49.560Z,16.78
2023-07-20T03:50:19.061Z,16.91
2023-07-20T03:52:46.916Z,16.86
2023-07-20T03:55:14.671Z,16.77
2023-07-20T03:57:42.587Z,16.78
2023-07-20T04:00:13.382Z,16.80
2023-07-20T04:02:41.304Z,16.85
2023-07-20T04:05:09.676Z,16.82
2023-07-20T04:07:39.172Z,16.85
2023-07-20T04:10:07.782Z,16.88
2023-07-20T04:12:37.957Z,16.81
2023-07-20T04:15:07.343Z,16.74
2023-07-20T04:17:35.216Z,16.81
2023-07-20T04:20:03.894Z,16.77
2023-07-20T04:22:31.728Z,16.82
2023-07-20T04:25:01.115Z,16.99
2023-07-20T04:27:29.252Z,16.82
2023-07-20T04:29:57.068Z,16.84
2023-07-20T04:32:25.317Z,16.86
2023-07-20T04:34:53.598Z,16.82
2023-07-20T04:37:21.953Z,16.86
2023-07-20T04:39:50.491Z,16.82
2023-07-20T04:42:21.513Z,16.83
2023-07-20T04:44:49.327Z,16.86
2023-07-20T04:47:17.887Z,16.94
2023-07-20T04:49:45.928Z,16.89
2023-07-20T04:52:13.783Z,16.94
2023-07-20T04:54:41.614Z,16.92
2023-07-20T04:57:12.942Z,16.88
2023-07-20T04:59:46.945Z,16.86
2023-07-20T05:02:14.788Z,16.95
2023-07-20T05:04:42.806Z,16.82
2023-07-20T05:07:10.681Z,16.87
2023-07-20T05:09:38.526Z,16.89
2023-07-20T05:12:07.136Z,16.84
2023-07-20T05:14:34.988Z,16.87
2023-07-20T05:17:04.237Z,16.82
2023-07-20T05:19:32.282Z,16.80
2023-07-20T05:22:00.235Z,16.85
2023-07-20T05:24:28.013Z,16.83
2023-07-20T05:26:55.876Z,16.84
2023-07-20T05:29:23.836Z,16.85
2023-07-20T05:31:51.993Z,16.91
2023-07-20T05:34:22.002Z,16.99
2023-07-20T05:36:50.020Z,16.86
2023-07-20T05:39:19.108Z,16.95
2023-07-20T05:41:47.105Z,16.90
2023-07-20T05:44:14.979Z,16.95
2023-07-20T05:46:56.586Z,16.92
2023-07-20T05:49:27.049Z,16.96
2023-07-20T05:51:54.890Z,16.96
2023-07-20T05:54:22.731Z,17.03
2023-07-20T05:56:50.570Z,16.96
2023-07-20T05:59:18.568Z,16.84
2023-07-20T06:01:46.486Z,16.81
2023-07-20T06:04:14.470Z,16.70
2023-07-20T06:06:43.901Z,16.80
2023-07-20T06:09:13.099Z,16.74
2023-07-20T06:11:41.361Z,16.69
2023-07-20T06:14:09.282Z,16.71
2023-07-20T06:16:37.077Z,16.67
2023-07-20T06:19:04.929Z,16.68
2023-07-20T06:21:32.940Z,16.77
2023-07-20T06:24:02.126Z,16.86
2023-07-20T06:26:31.072Z,16.92
2023-07-20T06:28:59.412Z,16.88
2023-07-20T06:31:27.508Z,16.96
2023-07-20T06:33:55.428Z,16.95
2023-07-20T06:36:27.143Z,16.98
2023-07-20T06:43:59.387Z,17.12
2023-07-20T06:46:28.337Z,17.09
2023-07-20T06:51:27.602Z,17.03
2023-07-20T06:53:55.432Z,16.95
2023-07-20T06:56:24.861Z,16.93
2023-07-20T06:58:55.568Z,17.09
2023-07-20T07:01:24.149Z,17.15
2023-07-20T07:03:54.253Z,17.12
2023-07-20T07:06:25.212Z,17.31
2023-07-20T07:08:53.509Z,17.19
2023-07-20T07:11:21.573Z,17.21
2023-07-20T07:13:51.810Z,17.30
2023-07-20T07:16:21.362Z,17.23
2023-07-20T07:18:49.605Z,17.24
2023-07-20T07:21:17.460Z,17.32
2023-07-20T07:23:45.900Z,17.24
2023-07-20T07:26:13.909Z,17.34
2023-07-20T07:28:41.871Z,17.37
2023-07-20T07:31:10.097Z,17.42
2023-07-20T07:33:39.372Z,17.29
2023-07-20T07:36:07.596Z,17.35
2023-07-20T07:39:07.276Z,17.29
2023-07-20T07:41:23.631Z,17.38
2023-07-20T07:43:51.935Z,17.37
2023-07-20T07:46:19.891Z,17.32
2023-07-20T07:48:49.379Z,17.43
2023-07-20T07:51:17.161Z,17.45
2023-07-20T07:53:45.118Z,17.50
2023-07-20T07:56:12.955Z,17.45
2023-07-20T07:58:41.641Z,17.53
2023-07-20T08:01:09.562Z,17.46
2023-07-20T08:03:38.114Z,17.74
2023-07-20T08:06:07.524Z,17.55
2023-07-20T08:08:37.292Z,17.43
2023-07-20T08:11:07.903Z,17.48
2023-07-20T08:13:36.338Z,17.56
2023-07-20T08:16:04.579Z,17.56
2023-07-20T08:18:32.587Z,17.68
2023-07-20T08:21:00.586Z,17.86
2023-07-20T08:23:29.989Z,17.96
2023-07-20T08:25:57.993Z,18.23
2023-07-20T08:28:27.542Z,18.22
2023-07-20T08:30:55.496Z,18.68
2023-07-20T08:33:24.570Z,18.39
2023-07-20T08:35:52.568Z,18.19
2023-07-20T08:38:20.361Z,18.08
2023-07-20T08:40:49.786Z,18.15
2023-07-20T08:43:19.779Z,18.27
2023-07-20T08:45:50.986Z,18.50
2023-07-20T08:48:20.776Z,18.65
2023-07-20T08:50:51.650Z,18.66
2023-07-20T08:53:19.737Z,18.62
2023-07-20T08:55:50.730Z,18.66
2023-07-20T08:58:19.482Z,18.63
2023-07-20T09:00:48.281Z,18.70
2023-07-20T09:03:16.929Z,18.77
2023-07-20T09:05:44.895Z,19.15
2023-07-20T09:08:12.846Z,19.04
2023-07-20T09:10:40.648Z,18.92
2023-07-20T09:13:10.808Z,18.78
2023-07-20T09:15:39.250Z,18.76
2023-07-20T09:18:07.399Z,18.61
2023-07-20T09:20:35.575Z,18.53
2023-07-20T09:23:07.472Z,18.47
2023-07-20T09:25:37.233Z,18.62
2023-07-20T09:28:06.343Z,18.63
2023-07-20T09:30:36.029Z,18.76
2023-07-20T09:33:03.948Z,18.90
2023-07-20T09:35:42.640Z,19.13
2023-07-20T09:50:52.221Z,19.13
2023-07-20T09:53:20.905Z,19.26
2023-07-20T09:55:50.263Z,19.41
2023-07-20T09:58:18.820Z,19.57
2023-07-20T10:03:22.942Z,19.51
2023-07-20T10:05:56.510Z,19.46
2023-07-20T10:11:01.541Z,19.56
2023-07-20T10:13:32.065Z,19.50
2023-07-20T10:16:05.621Z,19.33
2023-07-20T10:18:40.027Z,19.44
2023-07-20T10:23:41.523Z,19.74
2023-07-20T10:26:10.037Z,19.90
2023-07-20T10:28:38.680Z,19.70
2023-07-20T10:31:10.114Z,19.88
2023-07-20T10:33:40.040Z,19.78
2023-07-20T10:36:08.508Z,19.98
2023-07-20T10:38:43.646Z,19.86
2023-07-20T10:41:21.770Z,20.07
2023-07-20T10:43:50.731Z,20.12
2023-07-20T10:46:44.560Z,20.14
2023-07-20T10:49:13.547Z,20.08
2023-07-20T10:51:42.452Z,20.13
2023-07-20T10:54:11.515Z,20.07
2023-07-20T10:56:39.555Z,20.18
2023-07-20T10:59:20.921Z,20.61
2023-07-20T11:01:51.223Z,20.48
2023-07-20T11:04:20.395Z,20.26
2023-07-20T11:06:48.623Z,20.31
2023-07-20T11:09:17.150Z,20.33
2023-07-20T11:11:46.317Z,20.45
2023-07-20T11:14:23.953Z,20.09
2023-07-20T11:16:54.456Z,20.04
2023-07-20T11:22:03.308Z,20.34
2023-07-20T11:24:32.145Z,20.50
2023-07-20T11:27:01.018Z,20.58
2023-07-20T11:29:33.017Z,20.81
2023-07-20T11:32:05.843Z,21.09
2023-07-20T11:34:35.887Z,21.26
2023-07-20T11:39:36.704Z,21.06
2023-07-20T11:42:05.485Z,21.01
2023-07-20T11:44:33.497Z,20.86
2023-07-20T11:47:05.436Z,20.94
2023-07-20T11:49:37.662Z,21.01
2023-07-20T11:52:06.581Z,20.82
2023-07-20T11:54:35.874Z,20.87
2023-07-20T11:57:04.577Z,21.14
2023-07-20T11:59:33.083Z,20.87
2023-07-20T12:02:03.524Z,20.73
2023-07-20T12:04:33.625Z,20.79
2023-07-20T12:07:01.964Z,20.72
2023-07-20T12:09:35.434Z,20.83
2023-07-20T12:12:13.483Z,20.81
2023-07-20T12:14:41.587Z,20.77
2023-07-20T12:17:11.345Z,20.85
2023-07-20T12:19:41.726Z,20.88
2023-07-20T12:22:10.209Z,21.04
2023-07-20T12:24:38.017Z,20.78
2023-07-20T12:27:06.578Z,20.83
2023-07-20T12:29:37.399Z,21.09
2023-07-20T12:32:06.230Z,20.76
2023-07-20T12:34:34.183Z,20.77
2023-07-20T12:37:05.549Z,21.23
2023-07-20T12:39:34.041Z,21.29
2023-07-20T12:42:01.856Z,21.35
2023-07-20T12:44:30.109Z,21.21
2023-07-20T12:46:58.738Z,21.42
2023-07-20T12:49:27.121Z,21.64
2023-07-20T12:51:56.941Z,21.70
2023-07-20T12:54:26.574Z,21.57
2023-07-20T12:59:28.582Z,21.43
2023-07-20T13:01:57.152Z,21.55
2023-07-20T13:04:26.314Z,21.56
2023-07-20T13:06:54.579Z,21.63
2023-07-20T13:09:23.173Z,21.68
2023-07-20T13:11:53.364Z,21.46
2023-07-20T13:14:21.610Z,21.45
2023-07-20T13:16:49.826Z,21.69
2023-07-20T13:19:17.971Z,22.31
2023-07-20T13:21:51.460Z,22.38
2023-07-20T13:24:19.794Z,22.30
2023-07-20T13:26:48.073Z,21.96
2023-07-20T13:29:18.421Z,21.88
2023-07-20T13:31:48.731Z,22.06
2023-07-20T13:34:19.619Z,22.15
2023-07-20T13:36:50.379Z,22.13
2023-07-20T13:39:18.733Z,22.00
2023-07-20T13:41:48.675Z,22.30
2023-07-20T13:44:22.781Z,21.92
2023-07-20T13:46:52.944Z,21.91
2023-07-20T13:49:23.960Z,21.58
2023-07-20T13:54:28.923Z,21.46
2023-07-20T13:56:57.839Z,21.58
2023-07-20T13:59:32.717Z,21.69
2023-07-20T14:04:35.234Z,21.57
2023-07-20T14:07:03.999Z,21.57
2023-07-20T14:09:32.479Z,21.53
2023-07-20T14:14:33.652Z,22.09
2023-07-20T14:17:02.227Z,22.00
2023-07-20T14:19:30.715Z,22.01
2023-07-20T14:22:01.232Z,22.47
2023-07-20T14:24:32.248Z,22.04
2023-07-20T14:27:01.820Z,22.10
2023-07-20T14:29:32.767Z,22.17
2023-07-20T14:32:02.449Z,22.32
2023-07-20T14:34:30.406Z,22.30
2023-07-20T14:37:01.102Z,22.17
2023-07-20T14:39:29.225Z,22.13
2023-07-20T14:41:57.274Z,22.32
2023-07-20T14:44:25.968Z,22.31
2023-07-20T14:47:07.197Z,22.37
2023-07-20T14:49:42.441Z,22.10
2023-07-20T14:54:41.717Z,22.03
2023-07-20T14:57:15.289Z,22.22
2023-07-20T14:59:44.924Z,22.08
2023-07-20T15:02:12.975Z,22.16
2023-07-20T15:04:48.358Z,22.21
2023-07-20T15:07:16.159Z,22.21
2023-07-20T15:09:46.559Z,22.21
2023-07-20T15:12:14.838Z,22.21
2023-07-20T15:14:44.462Z,22.19
2023-07-20T15:17:13.364Z,22.08
2023-07-20T15:19:42.709Z,22.23
2023-07-20T15:22:11.131Z,22.54
2023-07-20T15:24:39.433Z,22.68
2023-07-20T15:27:09.078Z,22.64
2023-07-20T15:29:36.961Z,22.36
2023-07-20T15:32:05.581Z,22.58
2023-07-20T15:34:33.560Z,22.26
2023-07-20T15:37:02.749Z,22.06
2023-07-20T15:39:30.888Z,22.38
2023-07-20T15:41:59.388Z,22.47
2023-07-20T15:44:27.275Z,22.21
2023-07-20T15:46:55.863Z,22.17
2023-07-20T15:49:25.605Z,22.11
2023-07-20T15:51:53.548Z,22.23
2023-07-20T15:54:23.085Z,22.24
2023-07-20T15:56:50.916Z,22.18
2023-07-20T15:59:19.281Z,22.24
2023-07-20T16:01:47.184Z,22.14
2023-07-20T16:04:16.103Z,22.30
2023-07-20T16:06:44.420Z,22.38
2023-07-20T16:09:12.259Z,22.29
2023-07-20T16:11:41.650Z,22.01
2023-07-20T16:14:10.741Z,21.88
2023-07-20T16:16:39.143Z,21.85
2023-07-20T16:19:07.008Z,21.83
2023-07-20T16:21:35.187Z,21.87
2023-07-20T16:24:03.222Z,21.90
2023-07-20T16:26:31.205Z,21.83
2023-07-20T16:31:31.147Z,21.87
2023-07-20T16:36:31.111Z,21.90
2023-07-20T16:49:06.155Z,21.66
2023-07-20T16:51:35.498Z,21.91
2023-07-20T16:54:04.370Z,21.94
2023-07-20T16:56:32.398Z,21.76
2023-07-20T16:59:01.757Z,21.65
2023-07-20T17:01:29.830Z,21.64
2023-07-20T17:03:57.811Z,21.69
2023-07-20T17:06:25.677Z,21.65
2023-07-20T17:08:53.568Z,21.68
2023-07-20T17:11:21.324Z,21.70
2023-07-20T17:13:49.066Z,21.64
2023-07-20T17:16:18.555Z,21.60
2023-07-20T17:18:46.372Z,21.71
2023-07-20T17:21:15.157Z,21.68
2023-07-20T17:28:47.834Z,21.58
2023-07-20T17:31:15.749Z,21.62
2023-07-20T17:33:45.306Z,21.57
2023-07-20T17:38:44.172Z,21.48
2023-07-20T17:41:14.842Z,21.60
2023-07-20T17:43:44.198Z,21.48
2023-07-20T17:48:44.505Z,21.43
2023-07-20T17:51:12.398Z,21.46
2023-07-20T17:53:40.244Z,21.40
2023-07-20T17:56:08.474Z,21.35
2023-07-20T17:58:36.465Z,21.38
2023-07-20T18:01:04.392Z,21.25
2023-07-20T18:03:32.425Z,21.17
2023-07-20T18:06:07.724Z,21.14
2023-07-20T18:08:35.865Z,21.14
2023-07-20T18:11:07.009Z,21.13
2023-07-20T18:13:34.946Z,21.08
2023-07-20T18:16:03.082Z,21.06
2023-07-20T18:18:31.695Z,21.01
2023-07-20T18:20:59.797Z,21.29
2023-07-20T18:23:29.427Z,21.19
2023-07-20T18:25:57.325Z,21.10
2023-07-20T18:28:25.192Z,21.02
2023-07-20T18:30:52.972Z,21.00
2023-07-20T18:33:20.820Z,20.97
2023-07-20T18:35:48.701Z,20.94
2023-07-20T18:38:16.628Z,20.88
2023-07-20T18:40:45.984Z,20.91
2023-07-20T18:43:13.830Z,20.88
2023-07-20T18:45:42.183Z,20.91
2023-07-20T18:48:11.561Z,20.83
2023-07-20T18:50:39.632Z,20.76
2023-07-20T18:53:07.405Z,20.70
2023-07-20T18:55:36.170Z,20.68
2023-07-20T18:58:05.452Z,20.60
2023-07-20T19:00:33.885Z,20.59
2023-07-20T19:03:01.973Z,20.55
2023-07-20T19:05:29.898Z,20.50
2023-07-20T19:07:58.244Z,20.54
2023-07-20T19:10:28.733Z,20.48
2023-07-20T19:12:56.508Z,20.41
2023-07-20T19:15:25.909Z,20.36
2023-07-20T19:17:54.267Z,20.35
2023-07-20T19:20:22.247Z,20.33
2023-07-20T19:22:50.048Z,20.27
2023-07-20T19:25:18.078Z,20.24
2023-07-20T19:27:45.876Z,20.24
2023-07-20T19:30:15.269Z,20.21
2023-07-20T19:32:44.800Z,20.15
2023-07-20T19:35:12.658Z,20.12
2023-07-20T19:37:40.684Z,20.08
2023-07-20T19:40:10.382Z,20.02
2023-07-20T19:42:38.276Z,20.02
2023-07-20T19:45:06.947Z,19.94
2023-07-20T19:47:34.804Z,19.92
2023-07-20T19:50:06.903Z,19.90
2023-07-20T19:52:36.066Z,19.85
2023-07-20T19:55:06.699Z,19.87
2023-07-20T20:00:08.829Z,19.88
2023-07-20T20:05:10.624Z,19.80
2023-07-20T20:07:39.104Z,19.80
2023-07-20T20:10:07.752Z,19.88
2023-07-20T20:12:36.154Z,19.85
2023-07-20T20:15:04.245Z,19.79
2023-07-20T20:17:32.341Z,19.78
2023-07-20T20:20:00.289Z,19.78
2023-07-20T20:22:29.730Z,19.79
2023-07-20T20:24:57.836Z,19.78
2023-07-20T20:27:26.221Z,19.84
2023-07-20T20:30:04.996Z,19.81
2023-07-20T20:32:35.551Z,19.94
2023-07-20T20:35:04.213Z,20.12
2023-07-20T20:37:33.308Z,20.16
2023-07-20T20:40:01.156Z,20.08
2023-07-20T20:42:28.893Z,20.13
2023-07-20T20:44:56.789Z,20.02
2023-07-20T20:47:24.959Z,19.85
2023-07-20T20:49:54.440Z,19.83
2023-07-20T20:52:22.186Z,19.59
2023-07-20T20:54:51.332Z,19.39
2023-07-20T20:57:19.218Z,19.07
2023-07-20T20:59:48.553Z,18.91
2023-07-20T21:02:19.042Z,18.55
2023-07-20T21:04:48.984Z,18.43
2023-07-20T21:07:17.181Z,18.19
2023-07-20T21:09:45.097Z,18.11
2023-07-20T21:12:14.757Z,18.06
2023-07-20T21:14:42.859Z,18.07
2023-07-20T21:17:10.708Z,17.92
2023-07-20T21:19:38.828Z,17.73
2023-07-20T21:22:06.876Z,17.60
2023-07-20T21:24:35.079Z,17.45
2023-07-20T21:27:02.825Z,17.53
2023-07-20T21:29:31.969Z,17.49
2023-07-20T21:31:59.951Z,17.54
2023-07-20T21:34:28.476Z,17.28
2023-07-20T21:36:56.272Z,17.25
2023-07-20T21:39:24.082Z,17.24
2023-07-20T21:41:51.881Z,17.34
2023-07-20T21:44:20.123Z,17.31
2023-07-20T21:46:50.272Z,17.18
2023-07-20T21:49:18.158Z,17.05
2023-07-20T21:51:45.911Z,16.98
2023-07-20T21:54:13.863Z,16.91
2023-07-20T21:56:41.822Z,17.00
2023-07-20T21:59:09.677Z,16.97
2023-07-20T22:04:10.478Z,16.95
2023-07-20T22:06:47.466Z,16.71
2023-07-20T22:09:15.335Z,16.63
2023-07-20T22:11:43.400Z,16.72
2023-07-20T22:14:11.242Z,16.65
2023-07-20T22:16:39.113Z,16.43
2023-07-20T22:19:07.020Z,16.46
2023-07-20T22:21:36.317Z,16.59
2023-07-20T22:24:04.363Z,16.63
2023-07-20T22:26:32.172Z,16.62
2023-07-20T22:29:00.149Z,16.65
2023-07-20T22:31:28.036Z,16.61
2023-07-20T22:33:56.861Z,16.60
2023-07-20T22:36:25.122Z,16.53
2023-07-20T22:38:55.108Z,16.57
2023-07-20T22:41:22.967Z,16.54
2023-07-20T22:43:50.827Z,16.54
2023-07-20T22:46:19.350Z,16.42
2023-07-20T22:48:47.291Z,16.54
2023-07-20T22:51:15.128Z,16.46
2023-07-20T22:53:43.003Z,16.55
2023-07-20T22:56:12.296Z,16.49
2023-07-20T22:58:40.153Z,16.43
2023-07-20T23:01:11.702Z,16.42
2023-07-20T23:03:40.043Z,16.32
2023-07-20T23:06:08.044Z,16.29
2023-07-20T23:08:37.097Z,16.28
2023-07-20T23:11:04.927Z,16.30
2023-07-20T23:13:38.295Z,16.21
2023-07-20T23:16:07.322Z,16.21
2023-07-20T23:18:36.249Z,16.20
2023-07-20T23:21:05.184Z,16.26
2023-07-20T23:23:36.337Z,16.23
2023-07-20T23:26:04.232Z,16.23
2023-07-20T23:28:32.017Z,16.16
2023-07-20T23:31:02.175Z,16.09
2023-07-20T23:33:31.078Z,16.04
2023-07-20T23:35:59.307Z,15.93
2023-07-20T23:38:27.254Z,15.85
2023-07-20T23:40:55.244Z,15.87
2023-07-20T23:43:23.417Z,15.82
2023-07-20T23:45:51.272Z,15.75
2023-07-20T23:48:20.716Z,15.71
2023-07-20T23:50:48.603Z,15.75
2023-07-20T23:53:16.379Z,15.66
2023-07-20T23:55:44.207Z,15.62
2023-07-20T23:58:12.507Z,15.58
